sensor_id;sensor_type;location;lat;lon;timestamp;P1;durP1;ratioP1;P2;durP2;ratioP2
72924;SDS011;61070;50.794;7.054;2023-12-28T00:00:46;3.95;;;1.63;;
72924;SDS011;61070;50.794;7.054;2023-12-28T00:01:46;6.60;;;1.77;;
72924;SDS011;61070;50.794;7.054;2023-12-28T00:02:46;3.75;;;1.55;;
72924;SDS011;61070;50.794;7.054;2023-12-28T00:03:47;2.78;;;1.52;;
72924;SDS011;61070;50.794;7.054;2023-12-28T00:04:47;4.20;;;1.73;;
72924;SDS011;61070;50.794;7.054;2023-12-28T00:05:47;2.85;;;1.65;;
72924;SDS011;61070;50.794;7.054;2023-12-28T00:06:48;3.05;;;1.75;;
72924;SDS011;61070;50.794;7.054;2023-12-28T00:07:48;2.83;;;1.52;;
72924;SDS011;61070;50.794;7.054;2023-12-28T00:08:49;4.00;;;1.75;;
72924;SDS011;61070;50.794;7.054;2023-12-28T00:09:49;5.60;;;1.77;;
72924;SDS011;61070;50.794;7.054;2023-12-28T00:10:50;3.08;;;1.13;;
72924;SDS011;61070;50.794;7.054;2023-12-28T00:11:50;4.68;;;1.73;;
72924;SDS011;61070;50.794;7.054;2023-12-28T00:12:51;4.40;;;1.58;;
72924;SDS011;61070;50.794;7.054;2023-12-28T00:13:51;5.78;;;1.92;;
72924;SDS011;61070;50.794;7.054;2023-12-28T00:14:52;3.72;;;1.45;;
72924;SDS011;61070;50.794;7.054;2023-12-28T00:15:52;3.33;;;1.40;;
72924;SDS011;61070;50.794;7.054;2023-12-28T00:16:53;5.47;;;2.10;;
72924;SDS011;61070;50.794;7.054;2023-12-28T00:17:53;5.60;;;1.63;;
72924;SDS011;61070;50.794;7.054;2023-12-28T00:18:53;1.88;;;1.20;;
72924;SDS011;61070;50.794;7.054;2023-12-28T00:19:53;4.97;;;1.60;;
72924;SDS011;61070;50.794;7.054;2023-12-28T00:20:54;2.35;;;1.35;;
72924;SDS011;61070;50.794;7.054;2023-12-28T00:21:54;4.65;;;1.48;;
72924;SDS011;61070;50.794;7.054;2023-12-28T00:22:55;3.75;;;1.40;;
72924;SDS011;61070;50.794;7.054;2023-12-28T00:23:55;2.80;;;1.50;;
72924;SDS011;61070;50.794;7.054;2023-12-28T00:24:55;3.53;;;1.30;;
72924;SDS011;61070;50.794;7.054;2023-12-28T00:25:56;2.65;;;1.45;;
72924;SDS011;61070;50.794;7.054;2023-12-28T00:26:56;4.53;;;1.25;;
72924;SDS011;61070;50.794;7.054;2023-12-28T00:27:56;4.82;;;1.85;;
72924;SDS011;61070;50.794;7.054;2023-12-28T00:28:57;4.93;;;1.60;;
72924;SDS011;61070;50.794;7.054;2023-12-28T00:29:57;2.95;;;1.73;;
72924;SDS011;61070;50.794;7.054;2023-12-28T00:30:58;3.95;;;1.50;;
72924;SDS011;61070;50.794;7.054;2023-12-28T00:31:58;4.60;;;1.48;;
72924;SDS011;61070;50.794;7.054;2023-12-28T00:32:59;3.72;;;1.40;;
72924;SDS011;61070;50.794;7.054;2023-12-28T00:34:00;3.97;;;1.73;;
72924;SDS011;61070;50.794;7.054;2023-12-28T00:35:00;3.90;;;1.35;;
72924;SDS011;61070;50.794;7.054;2023-12-28T00:36:00;2.47;;;1.70;;
72924;SDS011;61070;50.794;7.054;2023-12-28T00:37:01;3.22;;;1.10;;
72924;SDS011;61070;50.794;7.054;2023-12-28T00:38:01;2.45;;;1.15;;
72924;SDS011;61070;50.794;7.054;2023-12-28T00:39:01;4.40;;;1.30;;
72924;SDS011;61070;50.794;7.054;2023-12-28T00:40:02;3.90;;;2.00;;
72924;SDS011;61070;50.794;7.054;2023-12-28T00:41:02;3.67;;;1.73;;
72924;SDS011;61070;50.794;7.054;2023-12-28T00:42:03;3.10;;;1.42;;
72924;SDS011;61070;50.794;7.054;2023-12-28T00:43:04;5.32;;;1.45;;
72924;SDS011;61070;50.794;7.054;2023-12-28T00:44:04;3.15;;;1.40;;
72924;SDS011;61070;50.794;7.054;2023-12-28T00:45:07;6.25;;;1.83;;
72924;SDS011;61070;50.794;7.054;2023-12-28T00:46:08;3.75;;;1.40;;
72924;SDS011;61070;50.794;7.054;2023-12-28T00:47:08;3.70;;;1.20;;
72924;SDS011;61070;50.794;7.054;2023-12-28T00:48:08;2.28;;;1.02;;
72924;SDS011;61070;50.794;7.054;2023-12-28T00:49:09;3.63;;;1.92;;
72924;SDS011;61070;50.794;7.054;2023-12-28T00:50:09;3.50;;;1.50;;
72924;SDS011;61070;50.794;7.054;2023-12-28T00:51:14;5.07;;;1.45;;
72924;SDS011;61070;50.794;7.054;2023-12-28T00:52:15;3.00;;;1.38;;
72924;SDS011;61070;50.794;7.054;2023-12-28T00:53:15;3.35;;;1.50;;
72924;SDS011;61070;50.794;7.054;2023-12-28T00:54:16;3.25;;;1.30;;
72924;SDS011;61070;50.794;7.054;2023-12-28T00:55:16;2.88;;;1.27;;
72924;SDS011;61070;50.794;7.054;2023-12-28T00:56:16;4.63;;;1.63;;
72924;SDS011;61070;50.794;7.054;2023-12-28T00:57:17;2.72;;;1.40;;
72924;SDS011;61070;50.794;7.054;2023-12-28T00:58:17;2.97;;;1.25;;
72924;SDS011;61070;50.794;7.054;2023-12-28T00:59:17;2.40;;;1.20;;
72924;SDS011;61070;50.794;7.054;2023-12-28T01:00:18;2.83;;;1.55;;
72924;SDS011;61070;50.794;7.054;2023-12-28T01:01:18;2.22;;;1.20;;
72924;SDS011;61070;50.794;7.054;2023-12-28T01:02:18;3.67;;;1.20;;
72924;SDS011;61070;50.794;7.054;2023-12-28T01:03:19;2.63;;;1.15;;
72924;SDS011;61070;50.794;7.054;2023-12-28T01:04:20;1.67;;;0.95;;
72924;SDS011;61070;50.794;7.054;2023-12-28T01:05:23;1.50;;;1.17;;
72924;SDS011;61070;50.794;7.054;2023-12-28T01:06:26;2.67;;;1.20;;
72924;SDS011;61070;50.794;7.054;2023-12-28T01:07:28;2.40;;;1.27;;
72924;SDS011;61070;50.794;7.054;2023-12-28T01:08:28;3.80;;;1.38;;
72924;SDS011;61070;50.794;7.054;2023-12-28T01:09:29;1.95;;;1.27;;
72924;SDS011;61070;50.794;7.054;2023-12-28T01:10:30;2.22;;;1.02;;
72924;SDS011;61070;50.794;7.054;2023-12-28T01:11:30;3.45;;;1.23;;
72924;SDS011;61070;50.794;7.054;2023-12-28T01:12:31;3.38;;;1.20;;
72924;SDS011;61070;50.794;7.054;2023-12-28T01:13:31;2.00;;;1.05;;
72924;SDS011;61070;50.794;7.054;2023-12-28T01:14:31;2.20;;;1.13;;
72924;SDS011;61070;50.794;7.054;2023-12-28T01:15:32;1.15;;;0.80;;
72924;SDS011;61070;50.794;7.054;2023-12-28T01:16:32;2.17;;;0.90;;
72924;SDS011;61070;50.794;7.054;2023-12-28T01:17:32;2.85;;;1.45;;
72924;SDS011;61070;50.794;7.054;2023-12-28T01:18:33;1.55;;;0.82;;
72924;SDS011;61070;50.794;7.054;2023-12-28T01:19:33;1.83;;;1.30;;
72924;SDS011;61070;50.794;7.054;2023-12-28T01:20:33;3.92;;;1.05;;
72924;SDS011;61070;50.794;7.054;2023-12-28T01:21:34;4.90;;;1.30;;
72924;SDS011;61070;50.794;7.054;2023-12-28T01:22:35;2.30;;;1.10;;
72924;SDS011;61070;50.794;7.054;2023-12-28T01:23:35;1.55;;;0.98;;
72924;SDS011;61070;50.794;7.054;2023-12-28T01:24:36;2.28;;;1.35;;
72924;SDS011;61070;50.794;7.054;2023-12-28T01:25:36;2.83;;;1.15;;
72924;SDS011;61070;50.794;7.054;2023-12-28T01:26:36;2.28;;;1.10;;
72924;SDS011;61070;50.794;7.054;2023-12-28T01:27:36;1.52;;;0.80;;
72924;SDS011;61070;50.794;7.054;2023-12-28T01:28:37;3.90;;;1.15;;
72924;SDS011;61070;50.794;7.054;2023-12-28T01:29:37;3.22;;;1.00;;
72924;SDS011;61070;50.794;7.054;2023-12-28T01:30:37;2.30;;;1.10;;
72924;SDS011;61070;50.794;7.054;2023-12-28T01:31:38;1.63;;;0.80;;
72924;SDS011;61070;50.794;7.054;2023-12-28T01:32:39;1.10;;;0.70;;
72924;SDS011;61070;50.794;7.054;2023-12-28T01:33:39;1.80;;;0.90;;
72924;SDS011;61070;50.794;7.054;2023-12-28T01:34:39;1.52;;;0.88;;
72924;SDS011;61070;50.794;7.054;2023-12-28T01:35:41;0.98;;;0.65;;
72924;SDS011;61070;50.794;7.054;2023-12-28T01:36:42;1.98;;;0.90;;
72924;SDS011;61070;50.794;7.054;2023-12-28T01:37:44;1.20;;;0.63;;
72924;SDS011;61070;50.794;7.054;2023-12-28T01:38:44;1.38;;;0.82;;
72924;SDS011;61070;50.794;7.054;2023-12-28T01:39:45;0.57;;;0.57;;
72924;SDS011;61070;50.794;7.054;2023-12-28T01:40:45;3.17;;;1.00;;
72924;SDS011;61070;50.794;7.054;2023-12-28T01:41:46;0.77;;;0.60;;
72924;SDS011;61070;50.794;7.054;2023-12-28T01:42:46;1.38;;;0.77;;
72924;SDS011;61070;50.794;7.054;2023-12-28T01:43:46;2.40;;;0.80;;
72924;SDS011;61070;50.794;7.054;2023-12-28T01:44:47;1.00;;;0.63;;
72924;SDS011;61070;50.794;7.054;2023-12-28T01:45:47;2.88;;;1.05;;
72924;SDS011;61070;50.794;7.054;2023-12-28T01:46:47;1.30;;;0.60;;
72924;SDS011;61070;50.794;7.054;2023-12-28T01:47:48;1.35;;;0.82;;
72924;SDS011;61070;50.794;7.054;2023-12-28T01:48:50;1.42;;;0.55;;
72924;SDS011;61070;50.794;7.054;2023-12-28T01:49:51;1.88;;;0.60;;
72924;SDS011;61070;50.794;7.054;2023-12-28T01:50:55;1.90;;;0.82;;
72924;SDS011;61070;50.794;7.054;2023-12-28T01:51:56;1.33;;;0.63;;
72924;SDS011;61070;50.794;7.054;2023-12-28T01:52:57;1.75;;;0.80;;
72924;SDS011;61070;50.794;7.054;2023-12-28T01:53:59;2.28;;;1.02;;
72924;SDS011;61070;50.794;7.054;2023-12-28T01:55:00;2.40;;;0.80;;
72924;SDS011;61070;50.794;7.054;2023-12-28T01:56:01;1.05;;;0.80;;
72924;SDS011;61070;50.794;7.054;2023-12-28T01:57:03;1.20;;;0.60;;
72924;SDS011;61070;50.794;7.054;2023-12-28T01:58:04;1.75;;;0.98;;
72924;SDS011;61070;50.794;7.054;2023-12-28T01:59:05;1.10;;;0.60;;
72924;SDS011;61070;50.794;7.054;2023-12-28T02:00:05;1.63;;;0.82;;
72924;SDS011;61070;50.794;7.054;2023-12-28T02:01:07;1.48;;;0.90;;
72924;SDS011;61070;50.794;7.054;2023-12-28T02:02:08;0.73;;;0.60;;
72924;SDS011;61070;50.794;7.054;2023-12-28T02:03:08;0.93;;;0.57;;
72924;SDS011;61070;50.794;7.054;2023-12-28T02:04:08;0.60;;;0.60;;
72924;SDS011;61070;50.794;7.054;2023-12-28T02:05:10;2.70;;;0.80;;
72924;SDS011;61070;50.794;7.054;2023-12-28T02:06:13;2.08;;;0.82;;
72924;SDS011;61070;50.794;7.054;2023-12-28T02:07:16;1.30;;;0.60;;
72924;SDS011;61070;50.794;7.054;2023-12-28T02:08:16;0.88;;;0.70;;
72924;SDS011;61070;50.794;7.054;2023-12-28T02:09:17;1.05;;;0.90;;
72924;SDS011;61070;50.794;7.054;2023-12-28T02:10:17;0.57;;;0.40;;
72924;SDS011;61070;50.794;7.054;2023-12-28T02:11:18;2.78;;;0.80;;
72924;SDS011;61070;50.794;7.054;2023-12-28T02:12:19;2.10;;;0.88;;
72924;SDS011;61070;50.794;7.054;2023-12-28T02:13:19;1.08;;;0.60;;
72924;SDS011;61070;50.794;7.054;2023-12-28T02:14:20;1.83;;;0.80;;
72924;SDS011;61070;50.794;7.054;2023-12-28T02:15:22;1.20;;;0.63;;
72924;SDS011;61070;50.794;7.054;2023-12-28T02:16:29;1.13;;;0.60;;
72924;SDS011;61070;50.794;7.054;2023-12-28T02:17:35;3.13;;;0.75;;
72924;SDS011;61070;50.794;7.054;2023-12-28T02:18:43;1.25;;;0.60;;
72924;SDS011;61070;50.794;7.054;2023-12-28T02:19:50;2.65;;;0.65;;
72924;SDS011;61070;50.794;7.054;2023-12-28T02:20:51;1.33;;;0.70;;
72924;SDS011;61070;50.794;7.054;2023-12-28T02:21:52;2.60;;;0.70;;
72924;SDS011;61070;50.794;7.054;2023-12-28T02:22:54;0.90;;;0.50;;
72924;SDS011;61070;50.794;7.054;2023-12-28T02:23:55;1.60;;;0.70;;
72924;SDS011;61070;50.794;7.054;2023-12-28T02:26:02;1.27;;;0.90;;
72924;SDS011;61070;50.794;7.054;2023-12-28T02:27:02;1.27;;;0.75;;
72924;SDS011;61070;50.794;7.054;2023-12-28T02:28:03;1.38;;;0.70;;
72924;SDS011;61070;50.794;7.054;2023-12-28T02:29:03;2.35;;;0.70;;
72924;SDS011;61070;50.794;7.054;2023-12-28T02:30:04;3.35;;;1.00;;
72924;SDS011;61070;50.794;7.054;2023-12-28T02:31:06;1.65;;;0.90;;
72924;SDS011;61070;50.794;7.054;2023-12-28T02:32:09;2.75;;;0.90;;
72924;SDS011;61070;50.794;7.054;2023-12-28T02:34:12;2.30;;;0.90;;
72924;SDS011;61070;50.794;7.054;2023-12-28T02:34:46;2.33;;;0.98;;
72924;SDS011;61070;50.794;7.054;2023-12-28T02:35:58;1.77;;;1.08;;
72924;SDS011;61070;50.794;7.054;2023-12-28T02:37:01;1.38;;;0.82;;
72924;SDS011;61070;50.794;7.054;2023-12-28T02:38:03;1.25;;;1.00;;
72924;SDS011;61070;50.794;7.054;2023-12-28T02:39:06;1.77;;;1.00;;
72924;SDS011;61070;50.794;7.054;2023-12-28T02:40:07;3.03;;;1.00;;
72924;SDS011;61070;50.794;7.054;2023-12-28T02:41:08;1.13;;;0.82;;
72924;SDS011;61070;50.794;7.054;2023-12-28T02:42:09;4.57;;;0.82;;
72924;SDS011;61070;50.794;7.054;2023-12-28T02:43:10;2.58;;;1.08;;
72924;SDS011;61070;50.794;7.054;2023-12-28T02:44:12;0.85;;;0.80;;
72924;SDS011;61070;50.794;7.054;2023-12-28T02:45:12;1.98;;;1.00;;
72924;SDS011;61070;50.794;7.054;2023-12-28T02:46:13;1.50;;;1.00;;
72924;SDS011;61070;50.794;7.054;2023-12-28T02:47:13;2.22;;;1.00;;
72924;SDS011;61070;50.794;7.054;2023-12-28T02:48:14;3.95;;;1.20;;
72924;SDS011;61070;50.794;7.054;2023-12-28T02:49:14;1.42;;;0.95;;
72924;SDS011;61070;50.794;7.054;2023-12-28T02:50:15;4.38;;;0.98;;
72924;SDS011;61070;50.794;7.054;2023-12-28T02:51:16;2.47;;;1.23;;
72924;SDS011;61070;50.794;7.054;2023-12-28T02:52:16;2.35;;;0.98;;
72924;SDS011;61070;50.794;7.054;2023-12-28T02:53:16;3.10;;;1.10;;
72924;SDS011;61070;50.794;7.054;2023-12-28T02:54:17;1.95;;;0.90;;
72924;SDS011;61070;50.794;7.054;2023-12-28T02:55:17;1.77;;;0.93;;
72924;SDS011;61070;50.794;7.054;2023-12-28T02:56:17;1.98;;;1.15;;
72924;SDS011;61070;50.794;7.054;2023-12-28T02:57:17;2.90;;;1.10;;
72924;SDS011;61070;50.794;7.054;2023-12-28T02:58:18;1.58;;;1.02;;
72924;SDS011;61070;50.794;7.054;2023-12-28T02:59:19;2.90;;;1.17;;
72924;SDS011;61070;50.794;7.054;2023-12-28T03:00:20;1.48;;;0.88;;
72924;SDS011;61070;50.794;7.054;2023-12-28T03:01:20;3.25;;;1.10;;
72924;SDS011;61070;50.794;7.054;2023-12-28T03:02:21;2.30;;;1.10;;
72924;SDS011;61070;50.794;7.054;2023-12-28T03:03:21;2.70;;;1.38;;
72924;SDS011;61070;50.794;7.054;2023-12-28T03:04:21;3.15;;;1.20;;
72924;SDS011;61070;50.794;7.054;2023-12-28T03:05:21;2.58;;;0.98;;
72924;SDS011;61070;50.794;7.054;2023-12-28T03:06:22;1.63;;;1.02;;
72924;SDS011;61070;50.794;7.054;2023-12-28T03:07:22;1.63;;;0.95;;
72924;SDS011;61070;50.794;7.054;2023-12-28T03:08:22;3.25;;;1.65;;
72924;SDS011;61070;50.794;7.054;2023-12-28T03:09:23;2.08;;;1.33;;
72924;SDS011;61070;50.794;7.054;2023-12-28T03:10:23;2.00;;;1.20;;
72924;SDS011;61070;50.794;7.054;2023-12-28T03:11:23;2.85;;;1.63;;
72924;SDS011;61070;50.794;7.054;2023-12-28T03:12:24;2.45;;;1.33;;
72924;SDS011;61070;50.794;7.054;2023-12-28T03:13:24;2.33;;;1.38;;
72924;SDS011;61070;50.794;7.054;2023-12-28T03:14:24;2.38;;;1.38;;
72924;SDS011;61070;50.794;7.054;2023-12-28T03:15:24;1.25;;;1.13;;
72924;SDS011;61070;50.794;7.054;2023-12-28T03:16:25;2.15;;;1.27;;
72924;SDS011;61070;50.794;7.054;2023-12-28T03:17:25;2.95;;;1.48;;
72924;SDS011;61070;50.794;7.054;2023-12-28T03:18:25;1.73;;;0.90;;
72924;SDS011;61070;50.794;7.054;2023-12-28T03:19:26;1.35;;;0.75;;
72924;SDS011;61070;50.794;7.054;2023-12-28T03:20:26;1.45;;;1.05;;
72924;SDS011;61070;50.794;7.054;2023-12-28T03:21:26;2.47;;;1.50;;
72924;SDS011;61070;50.794;7.054;2023-12-28T03:22:26;3.50;;;1.08;;
72924;SDS011;61070;50.794;7.054;2023-12-28T03:23:27;2.58;;;1.23;;
72924;SDS011;61070;50.794;7.054;2023-12-28T03:24:27;1.80;;;1.42;;
72924;SDS011;61070;50.794;7.054;2023-12-28T03:25:27;1.92;;;1.40;;
72924;SDS011;61070;50.794;7.054;2023-12-28T03:26:28;2.72;;;1.63;;
72924;SDS011;61070;50.794;7.054;2023-12-28T03:27:28;2.72;;;1.33;;
72924;SDS011;61070;50.794;7.054;2023-12-28T03:28:28;3.00;;;1.42;;
72924;SDS011;61070;50.794;7.054;2023-12-28T03:29:28;1.60;;;0.70;;
72924;SDS011;61070;50.794;7.054;2023-12-28T03:30:29;1.65;;;1.00;;
72924;SDS011;61070;50.794;7.054;2023-12-28T03:31:29;3.08;;;1.08;;
72924;SDS011;61070;50.794;7.054;2023-12-28T03:32:29;2.33;;;1.35;;
72924;SDS011;61070;50.794;7.054;2023-12-28T03:33:29;3.75;;;1.10;;
72924;SDS011;61070;50.794;7.054;2023-12-28T03:34:30;1.92;;;1.13;;
72924;SDS011;61070;50.794;7.054;2023-12-28T03:35:30;2.15;;;1.23;;
72924;SDS011;61070;50.794;7.054;2023-12-28T03:36:30;4.00;;;1.20;;
72924;SDS011;61070;50.794;7.054;2023-12-28T03:37:31;2.65;;;1.38;;
72924;SDS011;61070;50.794;7.054;2023-12-28T03:38:31;1.77;;;0.80;;
72924;SDS011;61070;50.794;7.054;2023-12-28T03:39:31;3.63;;;1.35;;
72924;SDS011;61070;50.794;7.054;2023-12-28T03:40:33;2.28;;;1.27;;
72924;SDS011;61070;50.794;7.054;2023-12-28T03:41:33;1.95;;;1.08;;
72924;SDS011;61070;50.794;7.054;2023-12-28T03:42:33;4.85;;;1.40;;
72924;SDS011;61070;50.794;7.054;2023-12-28T03:43:34;3.45;;;1.30;;
72924;SDS011;61070;50.794;7.054;2023-12-28T03:44:34;2.30;;;1.25;;
72924;SDS011;61070;50.794;7.054;2023-12-28T03:45:34;2.97;;;1.75;;
72924;SDS011;61070;50.794;7.054;2023-12-28T03:46:35;2.65;;;1.30;;
72924;SDS011;61070;50.794;7.054;2023-12-28T03:47:35;4.13;;;1.00;;
72924;SDS011;61070;50.794;7.054;2023-12-28T03:48:35;2.17;;;1.20;;
72924;SDS011;61070;50.794;7.054;2023-12-28T03:49:36;3.88;;;1.63;;
72924;SDS011;61070;50.794;7.054;2023-12-28T03:50:36;2.05;;;1.20;;
72924;SDS011;61070;50.794;7.054;2023-12-28T03:51:37;3.58;;;1.40;;
72924;SDS011;61070;50.794;7.054;2023-12-28T03:52:37;2.00;;;1.00;;
72924;SDS011;61070;50.794;7.054;2023-12-28T03:53:37;1.95;;;1.27;;
72924;SDS011;61070;50.794;7.054;2023-12-28T03:54:39;2.90;;;1.35;;
72924;SDS011;61070;50.794;7.054;2023-12-28T03:55:39;2.58;;;1.35;;
72924;SDS011;61070;50.794;7.054;2023-12-28T03:56:39;4.05;;;1.30;;
72924;SDS011;61070;50.794;7.054;2023-12-28T03:57:40;1.90;;;1.15;;
72924;SDS011;61070;50.794;7.054;2023-12-28T03:58:42;3.50;;;1.25;;
72924;SDS011;61070;50.794;7.054;2023-12-28T03:59:42;2.65;;;1.42;;
72924;SDS011;61070;50.794;7.054;2023-12-28T04:00:42;3.40;;;1.40;;
72924;SDS011;61070;50.794;7.054;2023-12-28T04:01:43;3.65;;;1.33;;
72924;SDS011;61070;50.794;7.054;2023-12-28T04:02:44;6.35;;;1.50;;
72924;SDS011;61070;50.794;7.054;2023-12-28T04:03:44;1.90;;;1.27;;
72924;SDS011;61070;50.794;7.054;2023-12-28T04:04:45;3.80;;;1.30;;
72924;SDS011;61070;50.794;7.054;2023-12-28T04:05:46;2.47;;;1.15;;
72924;SDS011;61070;50.794;7.054;2023-12-28T04:06:46;1.77;;;1.20;;
72924;SDS011;61070;50.794;7.054;2023-12-28T04:07:47;3.55;;;1.50;;
72924;SDS011;61070;50.794;7.054;2023-12-28T04:08:47;2.67;;;1.30;;
72924;SDS011;61070;50.794;7.054;2023-12-28T04:09:47;2.80;;;1.10;;
72924;SDS011;61070;50.794;7.054;2023-12-28T04:10:47;2.30;;;1.40;;
72924;SDS011;61070;50.794;7.054;2023-12-28T04:11:48;2.05;;;1.40;;
72924;SDS011;61070;50.794;7.054;2023-12-28T04:12:48;3.92;;;1.25;;
72924;SDS011;61070;50.794;7.054;2023-12-28T04:13:48;2.50;;;1.02;;
72924;SDS011;61070;50.794;7.054;2023-12-28T04:14:49;2.55;;;1.30;;
72924;SDS011;61070;50.794;7.054;2023-12-28T04:15:49;2.60;;;1.50;;
72924;SDS011;61070;50.794;7.054;2023-12-28T04:16:49;3.13;;;1.30;;
72924;SDS011;61070;50.794;7.054;2023-12-28T04:17:50;5.03;;;1.70;;
72924;SDS011;61070;50.794;7.054;2023-12-28T04:18:50;6.32;;;1.80;;
72924;SDS011;61070;50.794;7.054;2023-12-28T04:19:50;4.18;;;1.30;;
72924;SDS011;61070;50.794;7.054;2023-12-28T04:20:51;4.10;;;1.70;;
72924;SDS011;61070;50.794;7.054;2023-12-28T04:21:51;1.65;;;1.30;;
72924;SDS011;61070;50.794;7.054;2023-12-28T04:22:51;3.88;;;1.40;;
72924;SDS011;61070;50.794;7.054;2023-12-28T04:23:51;1.83;;;1.50;;
72924;SDS011;61070;50.794;7.054;2023-12-28T04:24:52;3.22;;;1.48;;
72924;SDS011;61070;50.794;7.054;2023-12-28T04:25:52;3.00;;;1.50;;
72924;SDS011;61070;50.794;7.054;2023-12-28T04:26:52;2.40;;;1.15;;
72924;SDS011;61070;50.794;7.054;2023-12-28T04:27:52;2.55;;;1.38;;
72924;SDS011;61070;50.794;7.054;2023-12-28T04:28:53;2.42;;;1.50;;
72924;SDS011;61070;50.794;7.054;2023-12-28T04:29:53;3.13;;;1.50;;
72924;SDS011;61070;50.794;7.054;2023-12-28T04:30:53;2.97;;;1.38;;
72924;SDS011;61070;50.794;7.054;2023-12-28T04:31:53;3.70;;;1.60;;
72924;SDS011;61070;50.794;7.054;2023-12-28T04:32:54;5.22;;;1.83;;
72924;SDS011;61070;50.794;7.054;2023-12-28T04:33:54;4.07;;;1.60;;
72924;SDS011;61070;50.794;7.054;2023-12-28T04:34:54;2.47;;;1.58;;
72924;SDS011;61070;50.794;7.054;2023-12-28T04:35:56;2.78;;;1.70;;
72924;SDS011;61070;50.794;7.054;2023-12-28T04:36:56;2.90;;;1.80;;
72924;SDS011;61070;50.794;7.054;2023-12-28T04:37:56;3.20;;;1.65;;
72924;SDS011;61070;50.794;7.054;2023-12-28T04:38:57;2.63;;;1.80;;
72924;SDS011;61070;50.794;7.054;2023-12-28T04:39:57;3.05;;;1.63;;
72924;SDS011;61070;50.794;7.054;2023-12-28T04:40:59;3.85;;;1.38;;
72924;SDS011;61070;50.794;7.054;2023-12-28T04:41:59;2.30;;;1.17;;
72924;SDS011;61070;50.794;7.054;2023-12-28T04:43:00;2.53;;;1.30;;
72924;SDS011;61070;50.794;7.054;2023-12-28T04:44:02;6.72;;;1.33;;
72924;SDS011;61070;50.794;7.054;2023-12-28T04:45:03;3.60;;;1.58;;
72924;SDS011;61070;50.794;7.054;2023-12-28T04:46:04;4.10;;;1.90;;
72924;SDS011;61070;50.794;7.054;2023-12-28T04:47:04;3.50;;;1.50;;
72924;SDS011;61070;50.794;7.054;2023-12-28T04:48:05;4.82;;;1.80;;
72924;SDS011;61070;50.794;7.054;2023-12-28T04:49:05;4.80;;;1.85;;
72924;SDS011;61070;50.794;7.054;2023-12-28T04:50:07;4.38;;;1.67;;
72924;SDS011;61070;50.794;7.054;2023-12-28T04:51:07;6.70;;;2.03;;
72924;SDS011;61070;50.794;7.054;2023-12-28T04:52:07;3.60;;;1.85;;
72924;SDS011;61070;50.794;7.054;2023-12-28T04:53:08;2.53;;;1.60;;
72924;SDS011;61070;50.794;7.054;2023-12-28T04:54:08;3.47;;;2.20;;
72924;SDS011;61070;50.794;7.054;2023-12-28T04:55:08;4.70;;;1.98;;
72924;SDS011;61070;50.794;7.054;2023-12-28T04:56:08;5.13;;;1.60;;
72924;SDS011;61070;50.794;7.054;2023-12-28T04:57:09;7.78;;;1.70;;
72924;SDS011;61070;50.794;7.054;2023-12-28T04:58:10;4.40;;;1.70;;
72924;SDS011;61070;50.794;7.054;2023-12-28T04:59:10;3.30;;;1.80;;
72924;SDS011;61070;50.794;7.054;2023-12-28T05:00:11;3.65;;;1.58;;
72924;SDS011;61070;50.794;7.054;2023-12-28T05:01:11;2.75;;;1.58;;
72924;SDS011;61070;50.794;7.054;2023-12-28T05:02:11;2.08;;;1.35;;
72924;SDS011;61070;50.794;7.054;2023-12-28T05:03:12;4.30;;;1.50;;
72924;SDS011;61070;50.794;7.054;2023-12-28T05:04:12;3.50;;;1.67;;
72924;SDS011;61070;50.794;7.054;2023-12-28T05:05:12;3.92;;;1.70;;
72924;SDS011;61070;50.794;7.054;2023-12-28T05:06:13;4.13;;;1.55;;
72924;SDS011;61070;50.794;7.054;2023-12-28T05:07:13;3.22;;;1.60;;
72924;SDS011;61070;50.794;7.054;2023-12-28T05:08:13;3.03;;;1.48;;
72924;SDS011;61070;50.794;7.054;2023-12-28T05:09:13;4.10;;;1.50;;
72924;SDS011;61070;50.794;7.054;2023-12-28T05:10:14;5.65;;;1.60;;
72924;SDS011;61070;50.794;7.054;2023-12-28T05:11:14;3.22;;;1.92;;
72924;SDS011;61070;50.794;7.054;2023-12-28T05:12:14;2.75;;;1.60;;
72924;SDS011;61070;50.794;7.054;2023-12-28T05:13:14;4.72;;;1.70;;
72924;SDS011;61070;50.794;7.054;2023-12-28T05:14:15;6.50;;;1.80;;
72924;SDS011;61070;50.794;7.054;2023-12-28T05:15:15;4.25;;;1.50;;
72924;SDS011;61070;50.794;7.054;2023-12-28T05:16:15;7.22;;;2.28;;
72924;SDS011;61070;50.794;7.054;2023-12-28T05:17:16;2.90;;;1.75;;
72924;SDS011;61070;50.794;7.054;2023-12-28T05:18:16;4.75;;;1.92;;
72924;SDS011;61070;50.794;7.054;2023-12-28T05:19:16;6.22;;;1.80;;
72924;SDS011;61070;50.794;7.054;2023-12-28T05:20:17;5.20;;;3.35;;
72924;SDS011;61070;50.794;7.054;2023-12-28T05:21:17;7.15;;;1.60;;
72924;SDS011;61070;50.794;7.054;2023-12-28T05:22:18;3.42;;;1.50;;
72924;SDS011;61070;50.794;7.054;2023-12-28T05:23:18;3.25;;;1.17;;
72924;SDS011;61070;50.794;7.054;2023-12-28T05:24:19;3.75;;;1.67;;
72924;SDS011;61070;50.794;7.054;2023-12-28T05:25:19;2.75;;;1.70;;
72924;SDS011;61070;50.794;7.054;2023-12-28T05:26:19;4.88;;;1.80;;
72924;SDS011;61070;50.794;7.054;2023-12-28T05:27:19;4.78;;;1.60;;
72924;SDS011;61070;50.794;7.054;2023-12-28T05:28:20;4.90;;;2.33;;
72924;SDS011;61070;50.794;7.054;2023-12-28T05:29:20;3.42;;;1.60;;
72924;SDS011;61070;50.794;7.054;2023-12-28T05:30:20;4.20;;;1.67;;
72924;SDS011;61070;50.794;7.054;2023-12-28T05:31:20;5.80;;;1.60;;
72924;SDS011;61070;50.794;7.054;2023-12-28T05:32:21;3.92;;;1.88;;
72924;SDS011;61070;50.794;7.054;2023-12-28T05:33:21;4.82;;;1.75;;
72924;SDS011;61070;50.794;7.054;2023-12-28T05:34:22;4.05;;;1.67;;
72924;SDS011;61070;50.794;7.054;2023-12-28T05:35:22;3.17;;;1.85;;
72924;SDS011;61070;50.794;7.054;2023-12-28T05:36:23;3.83;;;1.80;;
72924;SDS011;61070;50.794;7.054;2023-12-28T05:37:23;3.75;;;1.92;;
72924;SDS011;61070;50.794;7.054;2023-12-28T05:38:23;4.90;;;1.85;;
72924;SDS011;61070;50.794;7.054;2023-12-28T05:39:24;3.33;;;1.95;;
72924;SDS011;61070;50.794;7.054;2023-12-28T05:40:24;2.35;;;1.58;;
72924;SDS011;61070;50.794;7.054;2023-12-28T05:41:24;5.97;;;2.00;;
72924;SDS011;61070;50.794;7.054;2023-12-28T05:42:24;4.55;;;1.77;;
72924;SDS011;61070;50.794;7.054;2023-12-28T05:43:25;5.55;;;1.67;;
72924;SDS011;61070;50.794;7.054;2023-12-28T05:44:25;4.72;;;1.73;;
72924;SDS011;61070;50.794;7.054;2023-12-28T05:45:25;3.85;;;1.70;;
72924;SDS011;61070;50.794;7.054;2023-12-28T05:46:26;3.60;;;1.63;;
72924;SDS011;61070;50.794;7.054;2023-12-28T05:47:26;7.60;;;2.08;;
72924;SDS011;61070;50.794;7.054;2023-12-28T05:48:26;4.18;;;2.22;;
72924;SDS011;61070;50.794;7.054;2023-12-28T05:49:26;3.25;;;1.80;;
72924;SDS011;61070;50.794;7.054;2023-12-28T05:50:28;4.28;;;1.48;;
72924;SDS011;61070;50.794;7.054;2023-12-28T05:51:28;3.45;;;1.48;;
72924;SDS011;61070;50.794;7.054;2023-12-28T05:52:29;3.95;;;1.73;;
72924;SDS011;61070;50.794;7.054;2023-12-28T05:53:29;5.38;;;2.00;;
72924;SDS011;61070;50.794;7.054;2023-12-28T05:54:29;3.65;;;1.83;;
72924;SDS011;61070;50.794;7.054;2023-12-28T05:55:30;8.13;;;1.98;;
72924;SDS011;61070;50.794;7.054;2023-12-28T05:56:30;2.92;;;1.75;;
72924;SDS011;61070;50.794;7.054;2023-12-28T05:57:30;5.07;;;1.73;;
72924;SDS011;61070;50.794;7.054;2023-12-28T05:58:31;4.50;;;1.73;;
72924;SDS011;61070;50.794;7.054;2023-12-28T05:59:31;4.35;;;1.85;;
72924;SDS011;61070;50.794;7.054;2023-12-28T06:00:31;4.97;;;1.50;;
72924;SDS011;61070;50.794;7.054;2023-12-28T06:01:32;4.50;;;2.10;;
72924;SDS011;61070;50.794;7.054;2023-12-28T06:02:32;3.92;;;2.00;;
72924;SDS011;61070;50.794;7.054;2023-12-28T06:03:32;3.58;;;1.58;;
72924;SDS011;61070;50.794;7.054;2023-12-28T06:04:33;5.55;;;2.00;;
72924;SDS011;61070;50.794;7.054;2023-12-28T06:05:35;4.63;;;1.77;;
72924;SDS011;61070;50.794;7.054;2023-12-28T06:06:35;8.57;;;2.05;;
72924;SDS011;61070;50.794;7.054;2023-12-28T06:07:36;3.58;;;2.00;;